Time;durP1;ratioP1;P1;durP2;ratioP2;P2;SDS_P1;SDS_P2;PMS_P1;PMS_P2;Temp;Humidity;BMP_temperature;BMP_pressure;BME280_temperature;BME280_humidity;BME280_pressure;Samples;Min_cycle;Max_cycle;Signal;HPM_P1;HPM_P2
2023/10/30 00:00:08;;;;;;;;;;;;;;;17.81;58.30;99436.00;4434983;32;34596;-79
2023/10/30 00:02:36;;;;;;;;;;;;;;;17.93;58.28;99431.78;4434413;32;33251;-79
2023/10/30 00:05:03;;;;;;;;;;;;;;;17.94;58.23;99431.78;4433523;32;34182;-79
2023/10/30 00:07:31;;;;;;;;;;;;;;;17.97;58.11;99436.19;4422159;32;33434;-79
2023/10/30 00:09:58;;;;;;;;;;;;;;;17.97;58.00;99437.06;4435781;32;34330;-79
2023/10/30 00:12:25;;;;;;;;;;;;;;;18.27;57.25;99438.16;4427115;32;33273;-80
2023/10/30 00:14:53;;;;;;;;;;;;;;;17.98;57.43;99443.16;4429333;32;33993;-80
2023/10/30 00:17:21;;;;;;;;;;;;;;;18.08;57.69;99448.53;4431908;32;33985;-80
2023/10/30 00:19:48;;;;;;;;;;;;;;;18.02;57.40;99444.94;4433673;32;34430;-79
2023/10/30 00:22:15;;;;;;;;;;;;;;;18.09;57.49;99446.75;4426540;32;33006;-79
2023/10/30 00:24:43;;;;;;;;;;;;;;;18.08;57.48;99445.03;4434679;32;35102;-79
2023/10/30 00:27:10;;;;;;;;;;;;;;;18.15;57.20;99440.69;4429838;32;33873;-79
2023/10/30 00:29:40;;;;;;;;;;;;;;;18.04;57.42;99443.22;4431673;32;34483;-79
2023/10/30 00:32:08;;;;;;;;;;;;;;;17.97;57.58;99446.66;4432724;32;32695;-79
2023/10/30 00:34:35;;;;;;;;;;;;;;;17.85;57.89;99445.69;4419337;32;33725;-79
2023/10/30 00:37:02;;;;;;;;;;;;;;;17.90;57.90;99444.84;4433869;32;34191;-79
2023/10/30 00:39:32;;;;;;;;;;;;;;;17.91;57.85;99446.63;4431452;32;34445;-79
2023/10/30 00:42:08;;;;;;;;;;;;;;;17.76;58.06;99440.31;4424709;32;33276;-79
2023/10/30 00:44:39;;;;;;;;;;;;;;;17.72;58.45;99441.16;4421561;32;33725;-79
2023/10/30 00:47:06;;;;;;;;;;;;;;;17.79;58.29;99435.13;4425723;32;34177;-79
2023/10/30 00:49:34;;;;;;;;;;;;;;;17.77;58.04;99434.22;4435971;32;34187;-79
2023/10/30 00:52:01;;;;;;;;;;;;;;;17.68;58.24;99428.87;4429282;32;34026;-79
2023/10/30 00:54:29;;;;;;;;;;;;;;;17.58;58.53;99427.06;4433489;32;33927;-79
2023/10/30 00:56:56;;;;;;;;;;;;;;;17.80;57.93;99421.13;4434105;32;34405;-79
2023/10/30 00:59:23;;;;;;;;;;;;;;;17.70;58.17;99427.16;4427756;32;35075;-79
2023/10/30 01:01:51;;;;;;;;;;;;;;;17.64;58.14;99425.34;4423810;32;33398;-79
2023/10/30 01:04:18;;;;;;;;;;;;;;;17.65;58.16;99414.03;4422923;32;33986;-80
2023/10/30 01:06:46;;;;;;;;;;;;;;;17.76;57.99;99421.97;4431142;32;34911;-79
2023/10/30 01:09:14;;;;;;;;;;;;;;;17.77;57.84;99426.38;4426916;32;34872;-79
2023/10/30 01:11:42;;;;;;;;;;;;;;;17.73;57.91;99416.72;4428723;32;34336;-79
2023/10/30 01:14:10;;;;;;;;;;;;;;;17.67;57.69;99414.03;4428163;32;34092;-79
2023/10/30 01:16:37;;;;;;;;;;;;;;;17.82;57.49;99411.53;4425050;32;32968;-80
2023/10/30 01:19:06;;;;;;;;;;;;;;;17.91;57.23;99416.03;4434477;32;34609;-80
2023/10/30 01:21:34;;;;;;;;;;;;;;;17.98;57.13;99416.97;4432400;32;33681;-79
2023/10/30 01:24:01;;;;;;;;;;;;;;;17.87;57.44;99414.25;4430027;32;34054;-80
2023/10/30 01:26:29;;;;;;;;;;;;;;;17.90;57.42;99413.41;4430618;32;34183;-79
2023/10/30 01:28:56;;;;;;;;;;;;;;;17.74;57.49;99413.22;4423671;32;34024;-79
2023/10/30 01:31:27;;;;;;;;;;;;;;;17.79;57.45;99415.88;4425493;32;33967;-79
2023/10/30 01:33:55;;;;;;;;;;;;;;;17.83;57.12;99421.19;4432521;32;33904;-79
2023/10/30 01:36:23;;;;;;;;;;;;;;;17.93;56.86;99423.94;4430294;32;34092;-79
2023/10/30 01:38:51;;;;;;;;;;;;;;;18.00;56.65;99410.00;4432539;32;34004;-79
2023/10/30 01:41:18;;;;;;;;;;;;;;;18.16;56.11;99411.88;4431335;32;33677;-79
2023/10/30 01:43:46;;;;;;;;;;;;;;;18.03;56.55;99405.66;4424721;32;34109;-79
2023/10/30 01:46:13;;;;;;;;;;;;;;;18.15;56.20;99410.12;4424012;32;34086;-79
2023/10/30 01:48:41;;;;;;;;;;;;;;;18.05;56.45;99403.91;4429344;32;35180;-79
2023/10/30 01:51:09;;;;;;;;;;;;;;;17.95;56.77;99401.22;4431722;32;33463;-79
2023/10/30 01:53:37;;;;;;;;;;;;;;;18.03;56.67;99399.53;4428407;32;34981;-78
2023/10/30 01:56:05;;;;;;;;;;;;;;;17.81;57.03;99399.34;4424765;32;33765;-79
2023/10/30 01:58:33;;;;;;;;;;;;;;;17.85;57.25;99401.16;4431607;32;35070;-80
2023/10/30 02:01:00;;;;;;;;;;;;;;;17.86;57.05;99402.88;4430366;32;33612;-79
2023/10/30 02:03:28;;;;;;;;;;;;;;;17.94;56.87;99399.47;4434112;32;34781;-79
2023/10/30 02:05:55;;;;;;;;;;;;;;;18.00;56.89;99404.75;4426920;32;34578;-79
2023/10/30 02:08:22;;;;;;;;;;;;;;;18.03;56.58;99405.66;4417989;32;34621;-79
2023/10/30 02:10:50;;;;;;;;;;;;;;;18.17;56.52;99399.66;4417491;32;33533;-80
2023/10/30 02:13:18;;;;;;;;;;;;;;;18.17;56.50;99397.03;4423754;32;34651;-79
2023/10/30 02:15:45;;;;;;;;;;;;;;;18.27;56.18;99399.75;4424281;32;34407;-79
2023/10/30 02:18:12;;;;;;;;;;;;;;;18.32;56.06;99391.03;4431448;32;34831;-80
2023/10/30 02:20:40;;;;;;;;;;;;;;;18.22;56.39;99396.19;4424387;32;33495;-79
2023/10/30 02:23:07;;;;;;;;;;;;;;;18.08;56.81;99393.47;4434110;32;33687;-79
2023/10/30 02:25:35;;;;;;;;;;;;;;;18.05;56.90;99388.19;4417914;32;34268;-80
2023/10/30 02:28:02;;;;;;;;;;;;;;;17.80;57.51;99392.31;4412128;32;35089;-79
2023/10/30 02:30:30;;;;;;;;;;;;;;;17.88;57.46;99388.06;4434388;32;34414;-79
2023/10/30 02:32:57;;;;;;;;;;;;;;;17.90;57.64;99395.06;4423658;32;33939;-79
2023/10/30 02:35:25;;;;;;;;;;;;;;;17.94;57.67;99399.47;4429642;32;33591;-80
2023/10/30 02:37:52;;;;;;;;;;;;;;;17.85;57.71;99389.78;4431634;32;34076;-79
2023/10/30 02:40:19;;;;;;;;;;;;;;;17.92;57.73;99391.59;4433363;32;33596;-80
2023/10/30 02:42:47;;;;;;;;;;;;;;;17.73;58.41;99406.25;4427430;32;34278;-80
2023/10/30 02:45:14;;;;;;;;;;;;;;;17.85;58.19;99403.75;4436705;32;33941;-79
2023/10/30 02:47:41;;;;;;;;;;;;;;;18.06;57.36;99416.19;4434869;32;34045;-80
2023/10/30 02:50:10;;;;;;;;;;;;;;;18.05;57.46;99414.41;4427044;32;35061;-79
2023/10/30 02:52:37;;;;;;;;;;;;;;;17.99;57.63;99416.97;4426149;32;33906;-80
2023/10/30 02:55:05;;;;;;;;;;;;;;;18.11;57.33;99408.34;4434334;32;34171;-79
2023/10/30 02:57:33;;;;;;;;;;;;;;;18.27;56.87;99412.84;4431714;32;34367;-79
2023/10/30 03:00:01;;;;;;;;;;;;;;;17.98;57.65;99403.84;4429128;32;34292;-79
2023/10/30 03:02:30;;;;;;;;;;;;;;;17.95;57.88;99402.09;4429455;32;34021;-79
2023/10/30 03:04:57;;;;;;;;;;;;;;;18.02;57.65;99401.28;4427282;32;34084;-79
2023/10/30 03:07:25;;;;;;;;;;;;;;;17.88;58.04;99409.00;4416903;32;34326;-79
2023/10/30 03:09:52;;;;;;;;;;;;;;;17.83;58.24;99402.84;4394675;32;786686;-79
2023/10/30 03:12:19;;;;;;;;;;;;;;;17.68;58.73;99407.94;4419303;32;35032;-79
2023/10/30 03:14:47;;;;;;;;;;;;;;;17.69;58.64;99407.06;4416068;32;34823;-79
2023/10/30 03:17:15;;;;;;;;;;;;;;;17.61;59.02;99408.72;4420395;32;34048;-79
2023/10/30 03:19:42;;;;;;;;;;;;;;;17.84;58.32;99409.84;4413697;32;33328;-79
2023/10/30 03:22:10;;;;;;;;;;;;;;;17.68;58.85;99407.94;4406741;32;34165;-78
2023/10/30 03:24:37;;;;;;;;;;;;;;;17.79;58.57;99408.91;4406836;32;34061;-79
2023/10/30 03:27:04;;;;;;;;;;;;;;;17.76;58.56;99421.97;4413547;32;35085;-79
2023/10/30 03:29:34;;;;;;;;;;;;;;;17.88;58.24;99416.00;4415184;32;33663;-79
2023/10/30 03:32:01;;;;;;;;;;;;;;;17.83;58.17;99423.81;4419143;32;34960;-79
2023/10/30 03:34:29;;;;;;;;;;;;;;;17.92;58.09;99416.91;4395461;32;32431;-79
2023/10/30 03:36:56;;;;;;;;;;;;;;;18.18;57.11;99425.00;4413129;32;34094;-79
2023/10/30 03:39:23;;;;;;;;;;;;;;;17.83;58.15;99421.19;4401989;32;31775;-79
2023/10/30 03:41:50;;;;;;;;;;;;;;;17.87;58.04;99411.66;4399369;32;33594;-79
2023/10/30 03:44:19;;;;;;;;;;;;;;;18.06;57.56;99415.31;4415433;32;34257;-80
2023/10/30 03:46:46;;;;;;;;;;;;;;;18.07;57.26;99411.81;4417722;32;34722;-80
2023/10/30 03:49:14;;;;;;;;;;;;;;;17.99;57.54;99414.34;4413591;32;33414;-79
2023/10/30 03:51:41;;;;;;;;;;;;;;;18.09;57.22;99417.94;4408532;32;34878;-79
2023/10/30 03:54:09;;;;;;;;;;;;;;;18.05;57.31;99422.28;4415214;32;34229;-79
2023/10/30 03:56:36;;;;;;;;;;;;;;;17.91;57.36;99409.94;4404318;32;32695;-78
2023/10/30 03:59:03;;;;;;;;;;;;;;;18.00;57.30;99404.75;4420334;32;33678;-79
2023/10/30 04:01:31;;;;;;;;;;;;;;;18.16;56.55;99406.63;4414813;32;32908;-79
2023/10/30 04:03:59;;;;;;;;;;;;;;;17.93;57.15;99410.81;4413806;32;34090;-79
2023/10/30 04:06:26;;;;;;;;;;;;;;;17.96;56.98;99400.34;4419895;32;33838;-79
2023/10/30 04:08:53;;;;;;;;;;;;;;;18.06;56.87;99399.59;4424110;32;33446;-79
2023/10/30 04:11:21;;;;;;;;;;;;;;;18.02;56.72;99406.53;4430550;32;34975;-79
2023/10/30 04:13:48;;;;;;;;;;;;;;;18.12;56.27;99406.59;4435643;32;34166;-79
2023/10/30 04:16:16;;;;;;;;;;;;;;;17.93;56.76;99397.72;4429027;32;34132;-79
2023/10/30 04:18:44;;;;;;;;;;;;;;;18.14;56.08;99407.47;4427915;32;33461;-80
2023/10/30 04:21:11;;;;;;;;;;;;;;;18.11;56.08;99403.09;4431992;32;34089;-79
2023/10/30 04:23:40;;;;;;;;;;;;;;;18.19;55.58;99404.03;4411876;32;33556;-79
2023/10/30 04:26:08;;;;;;;;;;;;;;;18.17;55.46;99408.38;4430007;32;34553;-79
2023/10/30 04:28:36;;;;;;;;;;;;;;;17.93;55.93;99402.97;4428329;32;33151;-80
2023/10/30 04:31:06;;;;;;;;;;;;;;;18.12;55.42;99410.09;4431915;32;34013;-79
2023/10/30 04:33:33;;;;;;;;;;;;;;;18.19;55.13;99414.50;4426369;32;34958;-80
2023/10/30 04:36:02;;;;;;;;;;;;;;;17.81;56.09;99401.94;4426748;32;34547;-81
2023/10/30 04:38:33;;;;;;;;;;;;;;;17.95;55.66;99401.22;4418841;32;34349;-79
2023/10/30 04:41:04;;;;;;;;;;;;;;;18.07;55.44;99403.94;4426880;32;33576;-80
2023/10/30 04:43:32;;;;;;;;;;;;;;;18.11;55.03;99397.84;4432338;32;34219;-80
2023/10/30 04:45:59;;;;;;;;;;;;;;;18.03;55.00;99394.31;4427837;32;35004;-79
2023/10/30 04:48:29;;;;;;;;;;;;;;;17.92;55.56;99390.72;4430263;32;33165;-79
2023/10/30 04:50:56;;;;;;;;;;;;;;;18.04;55.24;99396.03;4429189;32;34969;-79
2023/10/30 04:53:23;;;;;;;;;;;;;;;18.06;54.93;99394.34;4424633;32;33859;-79
2023/10/30 04:55:51;;;;;;;;;;;;;;;18.06;54.89;99410.06;4425335;32;34258;-79
2023/10/30 04:58:18;;;;;;;;;;;;;;;18.09;54.67;99404.81;4429231;32;32890;-79
2023/10/30 05:00:46;;;;;;;;;;;;;;;17.96;55.13;99400.34;4431447;32;34836;-79
2023/10/30 05:03:13;;;;;;;;;;;;;;;17.93;54.99;99401.22;4428759;32;33973;-79
2023/10/30 05:05:40;;;;;;;;;;;;;;;17.99;54.88;99400.38;4429016;32;34406;-79
2023/10/30 05:08:07;;;;;;;;;;;;;;;17.90;54.98;99405.53;4429054;32;33131;-79
2023/10/30 05:10:35;;;;;;;;;;;;;;;17.76;55.21;99411.50;4425407;32;34690;-79
2023/10/30 05:13:02;;;;;;;;;;;;;;;17.70;55.45;99411.44;4428921;32;33606;-79
2023/10/30 05:15:29;;;;;;;;;;;;;;;17.68;55.45;99408.81;4428127;32;34423;-79
2023/10/30 05:17:57;;;;;;;;;;;;;;;17.84;55.08;99417.72;4429382;32;33865;-79
2023/10/30 05:20:24;;;;;;;;;;;;;;;17.66;55.51;99414.91;4433994;32;34751;-79
2023/10/30 05:22:51;;;;;;;;;;;;;;;17.64;55.81;99421.87;4433751;32;32725;-80
2023/10/30 05:25:20;;;;;;;;;;;;;;;18.04;54.55;99424.88;4429944;32;34717;-79
2023/10/30 05:28:03;;;;;;;;;;;;;;;17.92;54.83;99435.25;4430396;32;33845;-79
2023/10/30 05:30:31;;;;;;;;;;;;;;;18.08;54.35;99434.53;4424046;32;35033;-79
2023/10/30 05:32:58;;;;;;;;;;;;;;;17.81;54.89;99435.09;4427596;32;34819;-79
2023/10/30 05:35:25;;;;;;;;;;;;;;;17.96;54.31;99434.41;4429842;32;34037;-79
2023/10/30 05:37:53;;;;;;;;;;;;;;;18.06;54.18;99444.13;4427648;32;33611;-79
2023/10/30 05:40:23;;;;;;;;;;;;;;;17.93;54.52;99444.87;4426754;32;33683;-79
2023/10/30 05:42:50;;;;;;;;;;;;;;;17.88;54.53;99442.19;4432601;32;34033;-79
2023/10/30 05:45:18;;;;;;;;;;;;;;;17.92;54.41;99449.22;4414437;32;32978;-79
2023/10/30 05:47:46;;;;;;;;;;;;;;;18.07;54.11;99443.25;4421918;32;33656;-80
2023/10/30 05:50:13;;;;;;;;;;;;;;;18.09;54.15;99449.38;4411665;32;34843;-79
2023/10/30 05:52:40;;;;;;;;;;;;;;;18.06;54.05;99452.00;4420675;32;34603;-79
2023/10/30 05:55:08;;;;;;;;;;;;;;;18.10;54.00;99452.87;4425182;32;34963;-79
2023/10/30 05:57:37;;;;;;;;;;;;;;;17.72;54.74;99462.09;4420326;32;33380;-79
2023/10/30 06:00:07;;;;;;;;;;;;;;;18.11;53.97;99460.75;4422593;32;34165;-79
2023/10/30 06:02:34;;;;;;;;;;;;;;;18.07;54.06;99469.47;4411192;32;34951;-78
2023/10/30 06:05:02;;;;;;;;;;;;;;;17.93;54.08;99465.84;4426828;32;33223;-79
2023/10/30 06:07:29;;;;;;;;;;;;;;;17.64;55.24;99469.88;4426170;32;33348;-79
2023/10/30 06:09:57;;;;;;;;;;;;;;;17.97;54.17;99467.63;4413206;32;33863;-80
2023/10/30 06:12:24;;;;;;;;;;;;;;;17.99;54.61;99482.50;4422356;32;34030;-79
2023/10/30 06:14:52;;;;;;;;;;;;;;;17.84;54.55;99480.59;4421021;32;35234;-77
2023/10/30 06:17:19;;;;;;;;;;;;;;;17.84;54.60;99474.47;4423138;32;33365;-79
2023/10/30 06:19:47;;;;;;;;;;;;;;;17.95;54.56;99470.22;4419380;32;34169;-80
2023/10/30 06:22:15;;;;;;;;;;;;;;;17.90;54.91;99468.44;4420803;32;33517;-80
2023/10/30 06:24:42;;;;;;;;;;;;;;;18.04;54.50;99469.41;4422566;32;34260;-80
2023/10/30 06:27:10;;;;;;;;;;;;;;;18.03;54.42;99472.94;4427385;32;33685;-79
2023/10/30 06:29:37;;;;;;;;;;;;;;;17.90;54.75;99476.28;4426321;32;34243;-79
2023/10/30 06:32:05;;;;;;;;;;;;;;;17.96;54.71;99476.34;4422378;32;35054;-80
2023/10/30 06:34:33;;;;;;;;;;;;;;;17.99;54.52;99476.38;4414377;32;35076;-80
2023/10/30 06:37:00;;;;;;;;;;;;;;;18.11;54.54;99481.72;4420959;32;33254;-80
2023/10/30 06:39:28;;;;;;;;;;;;;;;18.21;54.26;99475.69;4423831;32;35039;-80
2023/10/30 06:41:56;;;;;;;;;;;;;;;18.10;54.41;99474.75;4411981;32;32509;-80
2023/10/30 06:44:23;;;;;;;;;;;;;;;18.13;54.54;99487.88;4424910;32;34448;-79
2023/10/30 06:46:51;;;;;;;;;;;;;;;18.27;54.01;99494.12;4428077;32;34095;-79
2023/10/30 06:49:22;;;;;;;;;;;;;;;18.13;54.28;99505.34;4427543;32;34747;-80
2023/10/30 06:51:49;;;;;;;;;;;;;;;18.27;54.07;99499.38;4423043;32;35989;-80
2023/10/30 06:54:17;;;;;;;;;;;;;;;18.44;54.11;99496.88;4426264;32;34566;-80
2023/10/30 06:56:44;;;;;;;;;;;;;;;18.43;53.92;99496.88;4423419;32;34250;-80
2023/10/30 06:59:14;;;;;;;;;;;;;;;18.56;53.35;99505.69;4424283;32;34704;-78
2023/10/30 07:01:43;;;;;;;;;;;;;;;18.32;53.79;99495.91;4419370;32;33607;-78
2023/10/30 07:04:14;;;;;;;;;;;;;;;18.46;53.89;99496.88;4422505;32;34533;-79
2023/10/30 07:06:42;;;;;;;;;;;;;;;18.69;53.48;99504.06;4410365;32;33376;-79
2023/10/30 07:09:10;;;;;;;;;;;;;;;18.73;53.63;99503.22;4411816;32;34287;-80
2023/10/30 07:11:37;;;;;;;;;;;;;;;18.80;52.94;99502.44;4421427;32;33041;-80
2023/10/30 07:14:05;;;;;;;;;;;;;;;18.87;52.82;99501.56;4424057;32;33912;-82
2023/10/30 07:16:33;;;;;;;;;;;;;;;18.57;53.68;99505.72;4412753;32;32892;-81
2023/10/30 07:19:05;;;;;;;;;;;;;;;18.64;53.41;99509.28;4413906;32;34610;-81
2023/10/30 07:21:32;;;;;;;;;;;;;;;18.69;53.25;99506.69;4411586;32;34805;-82
2023/10/30 07:24:00;;;;;;;;;;;;;;;18.97;52.96;99508.66;4406909;32;35180;-81
2023/10/30 07:26:27;;;;;;;;;;;;;;;19.08;52.46;99510.47;4417462;32;33364;-81
2023/10/30 07:28:55;;;;;;;;;;;;;;;18.97;52.22;99506.03;4411275;32;34059;-79
2023/10/30 07:31:24;;;;;;;;;;;;;;;19.13;51.60;99504.38;4430166;32;34080;-77
2023/10/30 07:33:52;;;;;;;;;;;;;;;19.31;52.36;99514.06;4430139;32;34322;-77
2023/10/30 07:36:20;;;;;;;;;;;;;;;19.15;52.27;99507.88;4417392;32;34234;-78
2023/10/30 07:38:48;;;;;;;;;;;;;;;19.52;51.94;99517.69;4431553;32;34959;-78
2023/10/30 07:41:24;;;;;;;;;;;;;;;19.51;51.55;99505.41;4430631;32;34171;-78
2023/10/30 07:43:52;;;;;;;;;;;;;;;19.55;50.67;99520.31;4431068;32;34304;-77
2023/10/30 07:46:19;;;;;;;;;;;;;;;19.29;51.53;99514.94;4430548;32;34316;-77
2023/10/30 07:48:47;;;;;;;;;;;;;;;19.55;51.28;99522.97;4433094;32;34119;-78
2023/10/30 07:51:15;;;;;;;;;;;;;;;19.78;51.28;99523.03;4416079;32;33980;-77
2023/10/30 07:53:42;;;;;;;;;;;;;;;20.00;51.27;99516.09;4428431;32;33776;-79
2023/10/30 07:56:10;;;;;;;;;;;;;;;20.14;50.91;99519.63;4431729;32;32730;-78
2023/10/30 07:58:38;;;;;;;;;;;;;;;20.20;50.80;99529.28;4433153;32;33188;-78
2023/10/30 08:01:05;;;;;;;;;;;;;;;20.17;50.27;99538.03;4427224;32;33568;-79
2023/10/30 08:03:33;;;;;;;;;;;;;;;20.27;50.31;99530.16;4427062;32;35201;-78
2023/10/30 08:06:00;;;;;;;;;;;;;;;20.22;50.73;99532.78;4424152;32;32565;-78
2023/10/30 08:08:28;;;;;;;;;;;;;;;20.35;49.41;99538.94;4428490;32;34331;-78
2023/10/30 08:10:56;;;;;;;;;;;;;;;20.40;49.50;99526.69;4430121;32;34849;-80
2023/10/30 08:13:23;;;;;;;;;;;;;;;20.40;50.06;99531.94;4428608;32;34922;-78
2023/10/30 08:15:51;;;;;;;;;;;;;;;20.51;48.84;99519.63;4429954;32;33540;-78
2023/10/30 08:18:19;;;;;;;;;;;;;;;20.59;49.54;99517.00;4414851;32;34912;-79
2023/10/30 08:20:47;;;;;;;;;;;;;;;20.75;49.33;99517.94;4426335;32;34011;-81
2023/10/30 08:23:15;;;;;;;;;;;;;;;20.64;49.63;99522.31;4431495;32;33240;-80
2023/10/30 08:25:43;;;;;;;;;;;;;;;20.84;49.40;99515.25;4428998;32;33481;-79
2023/10/30 08:28:10;;;;;;;;;;;;;;;21.11;48.96;99505.56;4416144;32;33019;-79
2023/10/30 08:30:37;;;;;;;;;;;;;;;21.04;48.65;99506.47;4430320;32;34815;-80
2023/10/30 08:33:05;;;;;;;;;;;;;;;21.09;49.32;99504.69;4430338;32;34142;-78
2023/10/30 08:35:32;;;;;;;;;;;;;;;21.17;50.75;99510.78;4428302;32;33607;-80
2023/10/30 08:38:00;;;;;;;;;;;;;;;21.32;48.62;99494.94;4414678;32;34298;-79
2023/10/30 08:40:28;;;;;;;;;;;;;;;21.47;47.93;99499.31;4429102;32;32916;-79
2023/10/30 08:42:55;;;;;;;;;;;;;;;21.45;47.69;99494.94;4425726;32;34715;-79
2023/10/30 08:45:22;;;;;;;;;;;;;;;21.34;47.95;99498.47;4428594;32;34069;-80
2023/10/30 08:47:50;;;;;;;;;;;;;;;21.19;48.44;99506.44;4428849;32;34996;-80
2023/10/30 08:50:25;;;;;;;;;;;;;;;21.32;48.63;99500.22;4430571;32;34936;-81
2023/10/30 08:52:53;;;;;;;;;;;;;;;21.32;48.34;99499.34;4431575;32;35240;-81
2023/10/30 08:55:20;;;;;;;;;;;;;;;21.27;48.31;99495.88;4430132;32;33599;-80
2023/10/30 08:57:47;;;;;;;;;;;;;;;21.58;48.65;99496.66;4431131;32;34061;-80
2023/10/30 09:00:16;;;;;;;;;;;;;;;21.90;47.68;99491.16;4429146;32;33336;-80
2023/10/30 09:02:44;;;;;;;;;;;;;;;22.05;47.38;99495.47;4429244;32;32979;-80
2023/10/30 09:05:11;;;;;;;;;;;;;;;22.21;49.11;99492.72;4431721;32;33772;-81
2023/10/30 09:07:39;;;;;;;;;;;;;;;22.69;46.26;99495.88;4430006;32;33938;-81
2023/10/30 09:10:07;;;;;;;;;;;;;;;22.84;45.71;99494.84;4429827;32;33922;-81
2023/10/30 09:12:34;;;;;;;;;;;;;;;23.04;45.95;99499.97;4416075;32;35441;-82
2023/10/30 09:15:02;;;;;;;;;;;;;;;23.16;46.18;99492.78;4430902;32;33549;-81
2023/10/30 09:17:29;;;;;;;;;;;;;;;23.41;44.91;99502.16;4430985;32;33978;-80
2023/10/30 09:19:57;;;;;;;;;;;;;;;23.22;45.30;99501.50;4427945;32;34266;-80
2023/10/30 09:22:25;;;;;;;;;;;;;;;23.30;45.37;99505.81;4426089;32;34332;-81
2023/10/30 09:24:53;;;;;;;;;;;;;;;23.51;44.34;99499.41;4415545;32;31169;-81
2023/10/30 09:27:21;;;;;;;;;;;;;;;23.60;44.20;99514.25;4416206;32;33993;-80
2023/10/30 09:29:49;;;;;;;;;;;;;;;23.78;44.29;99529.06;4428584;32;33848;-80
2023/10/30 09:32:18;;;;;;;;;;;;;;;24.04;44.21;99515.44;4428064;32;35322;-79
2023/10/30 09:34:46;;;;;;;;;;;;;;;24.13;43.21;99504.75;4416414;32;34589;-80
2023/10/30 09:37:14;;;;;;;;;;;;;;;24.03;43.60;99508.44;4427067;32;35092;-78
2023/10/30 09:39:42;;;;;;;;;;;;;;;24.11;43.70;99510.97;4426206;32;35035;-78
2023/10/30 09:42:09;;;;;;;;;;;;;;;23.71;43.27;99512.34;4409867;32;34800;-78
2023/10/30 09:44:37;;;;;;;;;;;;;;;23.78;43.23;99504.31;4428001;32;32480;-79
2023/10/30 09:47:04;;;;;;;;;;;;;;;23.78;42.87;99517.56;4415185;32;32846;-78
2023/10/30 09:49:32;;;;;;;;;;;;;;;23.66;43.74;99508.91;4407894;32;34147;-78
2023/10/30 09:51:59;;;;;;;;;;;;;;;23.50;43.76;99502.06;4413394;32;34469;-77
2023/10/30 09:54:27;;;;;;;;;;;;;;;23.35;44.56;99503.13;4408357;32;34406;-79
2023/10/30 09:56:56;;;;;;;;;;;;;;;23.50;43.70;99504.72;4421183;32;34021;-78
2023/10/30 09:59:23;;;;;;;;;;;;;;;23.68;43.68;99507.13;4421390;32;33645;-78
2023/10/30 10:01:51;;;;;;;;;;;;;;;23.44;43.52;99500.38;4405466;32;34468;-78
2023/10/30 10:04:19;;;;;;;;;;;;;;;23.27;43.69;99511.13;4418469;32;34052;-81
2023/10/30 10:06:51;;;;;;;;;;;;;;;23.21;44.21;99511.22;4419641;32;34900;-78
2023/10/30 10:09:18;;;;;;;;;;;;;;;23.38;44.04;99496.94;4418008;32;33945;-79
2023/10/30 10:11:46;;;;;;;;;;;;;;;23.46;44.00;99489.78;4417324;32;33369;-79
2023/10/30 10:14:16;;;;;;;;;;;;;;;23.42;44.55;99496.00;4419541;32;33694;-78
2023/10/30 10:16:45;;;;;;;;;;;;;;;23.40;44.21;99487.22;4420641;32;33513;-78
2023/10/30 10:19:20;;;;;;;;;;;;;;;23.52;44.03;99500.28;4422554;32;34993;-78
2023/10/30 10:21:51;;;;;;;;;;;;;;;23.23;44.26;99498.00;4417502;32;34103;-78
2023/10/30 10:24:26;;;;;;;;;;;;;;;22.95;44.76;99487.72;4420384;32;33681;-77
2023/10/30 10:26:53;;;;;;;;;;;;;;;22.63;45.71;99482.75;4419290;32;32860;-78
2023/10/30 10:29:24;;;;;;;;;;;;;;;22.44;45.33;99485.53;4420431;32;34140;-77
2023/10/30 10:31:51;;;;;;;;;;;;;;;22.53;45.85;99490.75;4431164;32;35093;-78
2023/10/30 10:34:19;;;;;;;;;;;;;;;22.82;45.06;99489.59;4419750;32;33246;-77
2023/10/30 10:36:46;;;;;;;;;;;;;;;23.10;45.15;99489.31;4408481;32;33967;-79
2023/10/30 10:39:14;;;;;;;;;;;;;;;23.02;44.55;99493.78;4425498;32;32944;-78
2023/10/30 10:41:42;;;;;;;;;;;;;;;22.52;45.42;99499.56;4422444;32;35061;-80
2023/10/30 10:44:09;;;;;;;;;;;;;;;22.67;45.61;99500.28;4414224;32;33572;-78
2023/10/30 10:46:36;;;;;;;;;;;;;;;22.94;45.45;99492.09;4409627;32;35741;-77
2023/10/30 10:49:05;;;;;;;;;;;;;;;23.11;45.47;99496.38;4427533;32;33691;-78
2023/10/30 10:51:36;;;;;;;;;;;;;;;22.91;45.09;99488.63;4425931;32;34226;-78
2023/10/30 10:54:11;;;;;;;;;;;;;;;23.17;45.20;99483.94;4427202;32;34320;-79
2023/10/30 10:56:38;;;;;;;;;;;;;;;22.70;44.96;99476.53;4410050;32;34942;-79
2023/10/30 10:59:06;;;;;;;;;;;;;;;22.80;45.01;99488.72;4409865;32;33578;-78
2023/10/30 11:01:36;;;;;;;;;;;;;;;22.81;45.75;99479.91;4423581;32;34524;-79
2023/10/30 11:04:04;;;;;;;;;;;;;;;22.90;44.97;99478.94;4423209;32;32778;-78
2023/10/30 11:06:34;;;;;;;;;;;;;;;23.17;44.91;99485.72;4428209;32;34336;-78
2023/10/30 11:09:04;;;;;;;;;;;;;;;23.40;44.10;99489.87;4423636;32;33226;-78
2023/10/30 11:11:32;;;;;;;;;;;;;;;23.43;43.95;99473.94;4415455;32;33687;-77
2023/10/30 11:14:05;;;;;;;;;;;;;;;23.15;44.70;99480.44;4408927;32;32018;-78
2023/10/30 11:16:38;;;;;;;;;;;;;;;22.99;44.43;99478.00;4411105;32;33981;-77
2023/10/30 11:19:06;;;;;;;;;;;;;;;23.26;45.10;99469.75;4411156;32;34123;-78
2023/10/30 11:21:35;;;;;;;;;;;;;;;23.42;44.90;99469.56;4418839;32;34179;-78
2023/10/30 11:24:03;;;;;;;;;;;;;;;23.40;44.18;99464.31;4432775;32;32478;-79
2023/10/30 11:26:30;;;;;;;;;;;;;;;23.32;45.03;99464.41;4429991;32;35580;-79
2023/10/30 11:28:58;;;;;;;;;;;;;;;23.32;43.92;99460.87;4427401;32;32198;-79
2023/10/30 11:31:32;;;;;;;;;;;;;;;23.40;44.35;99452.87;4424318;32;33998;-79
2023/10/30 11:34:07;;;;;;;;;;;;;;;23.45;43.98;99451.91;4422805;32;34088;-78
2023/10/30 11:36:34;;;;;;;;;;;;;;;23.68;44.69;99448.94;4412230;32;33127;-78
2023/10/30 11:39:03;;;;;;;;;;;;;;;23.79;43.66;99455.88;4414357;32;34202;-78
2023/10/30 11:41:30;;;;;;;;;;;;;;;23.67;44.03;99447.19;4421527;32;33814;-79
2023/10/30 11:44:08;;;;;;;;;;;;;;;23.19;44.14;99449.59;4427586;32;33728;-80
2023/10/30 11:46:38;;;;;;;;;;;;;;;23.23;44.85;99446.00;4423225;32;34178;-79
2023/10/30 11:49:11;;;;;;;;;;;;;;;23.38;44.72;99446.72;4412809;32;32366;-78
2023/10/30 11:51:44;;;;;;;;;;;;;;;23.32;44.84;99442.38;4416808;32;34280;-79
2023/10/30 11:54:12;;;;;;;;;;;;;;;23.59;43.88;99427.91;4427259;32;33283;-79
2023/10/30 11:56:43;;;;;;;;;;;;;;;23.66;44.20;99424.31;4415464;32;34059;-79
2023/10/30 11:59:10;;;;;;;;;;;;;;;23.69;44.51;99423.38;4399434;32;33430;-79
2023/10/30 12:01:38;;;;;;;;;;;;;;;23.63;44.72;99426.97;4426610;32;33027;-78
2023/10/30 12:04:05;;;;;;;;;;;;;;;23.91;44.44;99418.66;4413396;32;33574;-78
2023/10/30 12:06:34;;;;;;;;;;;;;;;23.54;44.06;99416.53;4424333;32;33459;-79
2023/10/30 12:09:02;;;;;;;;;;;;;;;23.93;44.43;99408.91;4424388;32;34610;-77
2023/10/30 12:11:30;;;;;;;;;;;;;;;23.87;43.86;99407.25;4425220;32;34221;-78
2023/10/30 12:13:58;;;;;;;;;;;;;;;24.09;44.01;99407.78;4425024;32;33776;-79
2023/10/30 12:16:26;;;;;;;;;;;;;;;24.00;43.64;99407.94;4408105;32;33809;-79
2023/10/30 12:18:53;;;;;;;;;;;;;;;24.23;43.71;99398.75;4427283;32;34026;-79
2023/10/30 12:21:22;;;;;;;;;;;;;;;24.31;44.00;99399.47;4427309;32;34326;-79
2023/10/30 12:23:49;;;;;;;;;;;;;;;24.37;43.58;99402.00;4416596;32;33718;-80
2023/10/30 12:26:17;;;;;;;;;;;;;;;24.62;42.51;99401.59;4429139;32;33855;-78
2023/10/30 12:28:44;;;;;;;;;;;;;;;24.71;41.89;99401.41;4415271;32;32844;-78
2023/10/30 12:31:19;;;;;;;;;;;;;;;24.92;41.70;99401.00;4426978;32;34553;-78
2023/10/30 12:33:46;;;;;;;;;;;;;;;25.01;42.11;99393.75;4412895;32;33437;-79
2023/10/30 12:36:14;;;;;;;;;;;;;;;24.55;41.61;99379.66;4413462;32;33994;-77
2023/10/30 12:38:41;;;;;;;;;;;;;;;24.42;42.50;99386.91;4417692;32;33972;-78
2023/10/30 12:41:09;;;;;;;;;;;;;;;24.80;42.02;99388.00;4416628;32;33871;-78
2023/10/30 12:43:39;;;;;;;;;;;;;;;25.16;41.67;99382.84;4419504;32;34249;-78
2023/10/30 12:46:08;;;;;;;;;;;;;;;25.25;41.41;99390.63;4426648;32;34223;-78
2023/10/30 12:48:36;;;;;;;;;;;;;;;25.24;41.11;99375.59;4410579;32;34767;-78
2023/10/30 12:51:04;;;;;;;;;;;;;;;24.81;41.30;99371.19;4426814;32;34264;-78